Time;durP1;ratioP1;P1;durP2;ratioP2;P2;SDS_P1;SDS_P2;PMS_P1;PMS_P2;Temp;Humidity;BMP_temperature;BMP_pressure;BME280_temperature;BME280_humidity;BME280_pressure;Samples;Min_cycle;Max_cycle;Signal;HPM_P1;HPM_P2
2022/07/04 00:00:23;;;;;;;3.85;0.75;;;15.90;99.90;;;;;;4994299;28;20037;-60
2022/07/04 00:02:50;;;;;;;3.72;1.23;;;15.80;99.90;;;;;;4992435;28;20057;-59
2022/07/04 00:05:17;;;;;;;3.17;1.20;;;15.80;99.90;;;;;;4993904;28;20469;-59
2022/07/04 00:07:46;;;;;;;3.83;1.25;;;15.70;99.90;;;;;;4994300;28;20034;-57
2022/07/04 00:10:14;;;;;;;4.95;0.90;;;15.70;99.90;;;;;;4985899;28;20030;-59
2022/07/04 00:12:40;;;;;;;3.58;0.90;;;15.70;99.90;;;;;;4994281;28;20497;-57
2022/07/04 00:15:07;;;;;;;2.47;0.90;;;15.60;99.90;;;;;;4993035;28;20034;-60
2022/07/04 00:17:33;;;;;;;1.73;0.90;;;15.60;99.90;;;;;;4993526;28;20022;-56
2022/07/04 00:19:58;;;;;;;1.50;0.95;;;15.50;99.90;;;;;;4994313;28;20031;-59
2022/07/04 00:22:24;;;;;;;4.53;0.82;;;15.50;99.90;;;;;;4993867;28;20129;-57
2022/07/04 00:24:50;;;;;;;5.85;1.35;;;15.40;99.90;;;;;;4993879;28;20034;-57
2022/07/04 00:27:16;;;;;;;3.25;0.60;;;15.40;99.90;;;;;;4994028;28;20472;-59
2022/07/04 00:29:41;;;;;;;2.95;1.00;;;15.40;99.90;;;;;;4993076;28;20033;-59
2022/07/04 00:32:07;;;;;;;2.83;0.90;;;15.30;99.90;;;;;;4994506;28;20054;-59
2022/07/04 00:34:33;;;;;;;4.88;0.90;;;15.30;99.90;;;;;;4993893;28;20057;-60
2022/07/04 00:36:59;;;;;;;2.33;1.00;;;15.20;99.90;;;;;;4992482;28;20558;-59
2022/07/04 00:39:24;;;;;;;10.07;0.80;;;15.20;99.90;;;;;;4992956;28;20030;-58
2022/07/04 00:41:50;;;;;;;1.95;0.70;;;15.20;99.90;;;;;;4993858;28;20022;-58
2022/07/04 00:44:16;;;;;;;2.90;0.93;;;15.20;99.90;;;;;;4991874;28;20118;-59
2022/07/04 00:46:43;;;;;;;2.47;0.75;;;15.20;99.90;;;;;;4991906;28;20038;-57
2022/07/04 00:49:10;;;;;;;4.60;1.05;;;15.10;99.90;;;;;;4993594;28;20038;-56
2022/07/04 00:51:37;;;;;;;6.80;1.15;;;15.10;99.90;;;;;;4991807;28;20395;-56
2022/07/04 00:54:05;;;;;;;2.60;1.00;;;15.10;99.90;;;;;;4993479;28;20034;-57
2022/07/04 00:56:32;;;;;;;2.92;0.80;;;15.10;99.90;;;;;;4993332;28;20037;-57
2022/07/04 00:58:59;;;;;;;1.90;0.80;;;15.00;99.90;;;;;;4991331;28;20029;-57
2022/07/04 01:01:25;;;;;;;1.67;0.70;;;15.00;99.90;;;;;;4991454;28;20036;-59
2022/07/04 01:03:51;;;;;;;2.35;0.85;;;15.00;99.90;;;;;;4993030;28;20033;-59
2022/07/04 01:06:18;;;;;;;7.68;0.80;;;14.90;99.90;;;;;;4993039;28;20030;-58
2022/07/04 01:08:44;;;;;;;2.90;0.70;;;14.90;99.90;;;;;;4993408;28;20045;-59
2022/07/04 01:11:11;;;;;;;3.72;0.80;;;14.90;99.90;;;;;;4993259;28;20113;-57
2022/07/04 01:13:36;;;;;;;4.95;0.88;;;14.90;99.90;;;;;;4992287;28;20023;-57
2022/07/04 01:16:04;;;;;;;5.72;0.82;;;14.90;99.90;;;;;;4992657;28;20527;-58
2022/07/04 01:18:30;;;;;;;2.70;0.80;;;14.90;99.90;;;;;;4992496;28;20037;-60
2022/07/04 01:20:56;;;;;;;5.90;1.00;;;14.90;99.90;;;;;;4993110;28;20022;-57
2022/07/04 01:23:22;;;;;;;3.17;0.75;;;14.90;99.90;;;;;;4993060;28;20049;-59
2022/07/04 01:25:49;;;;;;;3.30;1.05;;;14.90;99.90;;;;;;4992684;28;20408;-58
2022/07/04 01:28:16;;;;;;;2.05;0.80;;;14.80;99.90;;;;;;4991752;28;20468;-59
2022/07/04 01:30:41;;;;;;;4.30;0.80;;;14.80;99.90;;;;;;4992765;28;20026;-57
2022/07/04 01:33:07;;;;;;;3.03;0.80;;;14.80;99.90;;;;;;4992360;28;20451;-57
2022/07/04 01:35:33;;;;;;;2.13;0.90;;;14.80;99.90;;;;;;4992171;28;20429;-58
2022/07/04 01:37:58;;;;;;;1.75;0.50;;;14.70;99.90;;;;;;4992720;28;20022;-59
2022/07/04 01:40:24;;;;;;;4.70;0.80;;;14.60;99.90;;;;;;4992829;28;20015;-58
2022/07/04 01:42:50;;;;;;;4.32;0.82;;;14.60;99.90;;;;;;4991836;28;20080;-56
2022/07/04 01:45:15;;;;;;;2.00;1.10;;;14.50;99.90;;;;;;4991836;28;20042;-58
2022/07/04 01:47:41;;;;;;;2.08;1.00;;;14.40;99.90;;;;;;4991716;28;20107;-59
2022/07/04 01:50:12;;;;;;;4.15;1.00;;;14.40;99.90;;;;;;4992428;28;20034;-57
2022/07/04 01:52:38;;;;;;;4.78;1.17;;;14.30;99.90;;;;;;4981867;28;20054;-59
2022/07/04 01:55:04;;;;;;;3.97;1.15;;;14.20;99.90;;;;;;4992254;28;20101;-58
2022/07/04 01:57:30;;;;;;;2.90;0.90;;;14.20;99.90;;;;;;4989420;28;20027;-59
2022/07/04 02:02:40;;;;;;;;;;;14.20;99.90;;;;;;4985580;28;20030;-58
2022/07/04 02:05:06;;;;;;;5.18;1.40;;;14.10;99.90;;;;;;4992190;28;20287;-56
2022/07/04 02:07:31;;;;;;;3.78;1.00;;;14.10;99.90;;;;;;4992298;28;20503;-59
2022/07/04 02:09:57;;;;;;;5.43;0.90;;;14.10;99.90;;;;;;4992067;28;20029;-59
2022/07/04 02:15:07;;;;;;;1.95;1.00;;;14.00;99.90;;;;;;4991654;28;20519;-56
2022/07/04 02:17:34;;;;;;;3.63;1.25;;;14.00;99.90;;;;;;4992210;28;20038;-59
2022/07/04 02:20:00;;;;;;;5.40;1.20;;;14.00;99.90;;;;;;4992281;28;20034;-58
2022/07/04 02:22:25;;;;;;;2.50;0.70;;;14.00;99.90;;;;;;4992215;28;20396;-59
2022/07/04 02:24:51;;;;;;;6.85;1.73;;;13.90;99.90;;;;;;4990769;28;20039;-59
2022/07/04 02:27:16;;;;;;;4.90;1.02;;;13.90;99.90;;;;;;4992043;28;20022;-58
2022/07/04 02:29:42;;;;;;;2.95;1.15;;;13.80;99.90;;;;;;4992208;28;20027;-57
2022/07/04 02:32:08;;;;;;;3.17;1.15;;;13.70;99.90;;;;;;4991918;28;20507;-58
2022/07/04 02:34:34;;;;;;;1.85;0.90;;;13.70;99.90;;;;;;4991848;28;20515;-60
2022/07/04 02:36:59;;;;;;;3.00;1.17;;;13.60;99.90;;;;;;4991723;28;20022;-59
2022/07/04 02:39:25;;;;;;;3.00;1.00;;;13.50;99.90;;;;;;4991274;28;20029;-59
2022/07/04 02:41:51;;;;;;;4.97;1.20;;;13.50;99.90;;;;;;4994251;28;20035;-57
2022/07/04 02:44:16;;;;;;;4.70;1.55;;;13.40;99.90;;;;;;4995805;28;20385;-57
2022/07/04 02:46:42;;;;;;;2.50;1.13;;;13.30;99.90;;;;;;4995690;28;20038;-57
2022/07/04 02:49:08;;;;;;;4.32;1.23;;;13.30;99.90;;;;;;4995928;28;20034;-59
2022/07/04 02:51:34;;;;;;;3.53;1.10;;;13.20;99.90;;;;;;4995447;28;20128;-57
2022/07/04 02:54:00;;;;;;;5.68;1.52;;;13.10;99.90;;;;;;4994885;28;20041;-59
2022/07/04 02:56:26;;;;;;;4.30;1.40;;;13.00;99.90;;;;;;4995368;28;20034;-58
2022/07/04 02:58:52;;;;;;;1.50;1.20;;;13.00;99.90;;;;;;4995791;28;20027;-58
2022/07/04 03:01:19;;;;;;;1.38;1.10;;;12.90;99.90;;;;;;4995761;28;20535;-60
2022/07/04 03:03:45;;;;;;;2.92;1.17;;;12.90;99.90;;;;;;4995035;28;20033;-59
2022/07/04 03:06:12;;;;;;;2.90;1.45;;;12.80;99.90;;;;;;4995134;28;20042;-59
2022/07/04 03:08:38;;;;;;;5.07;1.50;;;12.80;99.90;;;;;;4993448;28;20488;-59
2022/07/04 03:11:04;;;;;;;4.20;2.00;;;12.70;99.90;;;;;;4995602;28;20057;-59
2022/07/04 03:13:30;;;;;;;3.22;1.35;;;12.70;99.90;;;;;;4995393;28;20403;-60
2022/07/04 03:15:56;;;;;;;4.07;1.50;;;12.70;99.90;;;;;;4994614;28;20101;-60
2022/07/04 03:18:22;;;;;;;3.97;1.63;;;12.70;99.90;;;;;;4995197;28;20109;-60
2022/07/04 03:20:48;;;;;;;8.95;1.85;;;12.60;99.90;;;;;;4995334;28;20034;-57
2022/07/04 03:23:14;;;;;;;2.88;1.70;;;12.60;99.90;;;;;;4994497;28;20057;-60
2022/07/04 03:25:40;;;;;;;3.35;2.03;;;12.60;99.90;;;;;;4995149;28;20065;-59
2022/07/04 03:28:06;;;;;;;6.82;1.92;;;12.60;99.90;;;;;;4995361;28;20110;-58
2022/07/04 03:30:32;;;;;;;2.10;1.40;;;12.60;99.90;;;;;;4995223;28;20096;-57
2022/07/04 03:32:58;;;;;;;3.60;1.80;;;12.60;99.90;;;;;;4994623;28;20089;-57
2022/07/04 03:35:24;;;;;;;5.32;1.90;;;12.60;99.90;;;;;;4994838;28;20038;-57
2022/07/04 03:37:51;;;;;;;5.18;1.80;;;12.60;99.90;;;;;;4994006;28;20029;-57
2022/07/04 03:40:17;;;;;;;6.35;1.55;;;12.60;99.90;;;;;;4993704;28;20033;-58
2022/07/04 03:42:43;;;;;;;3.85;1.70;;;12.60;99.90;;;;;;4994246;28;20022;-57
2022/07/04 03:45:09;;;;;;;4.93;1.70;;;12.60;99.90;;;;;;4994428;28;20408;-57
2022/07/04 03:47:34;;;;;;;2.15;1.92;;;12.60;99.90;;;;;;4994715;28;20157;-58
2022/07/04 03:50:00;;;;;;;2.97;1.75;;;12.70;99.90;;;;;;4995036;28;20113;-59
2022/07/04 03:52:26;;;;;;;11.35;1.90;;;12.70;99.90;;;;;;4992102;28;20026;-58
2022/07/04 03:54:51;;;;;;;6.07;1.98;;;12.70;99.90;;;;;;4994297;28;20022;-58
2022/07/04 03:57:17;;;;;;;4.40;1.63;;;12.70;99.90;;;;;;4994248;28;20026;-57
2022/07/04 03:59:43;;;;;;;5.38;1.48;;;12.70;99.90;;;;;;4994622;28;20099;-58
2022/07/04 04:02:09;;;;;;;7.15;1.63;;;12.80;99.90;;;;;;4993513;28;20042;-56
2022/07/04 04:07:18;;;;;;;;;;;12.80;99.90;;;;;;4993780;28;20034;-58
2022/07/04 04:09:44;;;;;;;3.05;1.42;;;12.90;99.90;;;;;;4993145;28;20315;-57
2022/07/04 04:12:10;;;;;;;5.72;1.60;;;12.90;99.90;;;;;;4994283;28;20027;-56
2022/07/04 04:14:35;;;;;;;3.47;2.13;;;12.90;99.90;;;;;;4994170;28;20161;-60
2022/07/04 04:17:01;;;;;;;7.18;1.92;;;12.90;99.90;;;;;;4994113;28;20025;-60
2022/07/04 04:19:26;;;;;;;4.15;1.67;;;12.90;99.90;;;;;;4994551;28;20089;-58
2022/07/04 04:21:52;;;;;;;3.70;1.60;;;12.90;99.90;;;;;;4994514;28;20077;-58
2022/07/04 04:24:18;;;;;;;3.67;1.77;;;13.00;99.90;;;;;;4992804;28;20030;-59
2022/07/04 04:26:43;;;;;;;3.85;1.60;;;13.00;99.90;;;;;;4993747;28;20065;-60
2022/07/04 04:29:09;;;;;;;8.20;1.20;;;13.10;99.90;;;;;;4994390;28;20620;-55
2022/07/04 04:31:35;;;;;;;6.13;1.20;;;13.20;99.90;;;;;;4993494;28;20060;-57
2022/07/04 04:34:01;;;;;;;5.68;1.35;;;13.40;99.90;;;;;;4993942;28;20068;-58
2022/07/04 04:36:26;;;;;;;2.70;1.60;;;13.60;99.90;;;;;;4993109;28;20057;-59
2022/07/04 04:38:52;;;;;;;5.35;2.13;;;14.70;99.90;;;;;;4992194;28;20109;-60
2022/07/04 04:41:18;;;;;;;5.07;1.77;;;16.60;99.90;;;;;;4993576;28;20518;-57
2022/07/04 04:43:44;;;;;;;4.55;2.40;;;18.50;99.90;;;;;;4993993;28;20034;-59
2022/07/04 04:46:10;;;;;;;3.03;1.40;;;19.50;99.90;;;;;;4993228;28;20034;-58
2022/07/04 04:48:35;;;;;;;1.85;1.00;;;20.30;97.30;;;;;;4993814;28;20396;-60
2022/07/04 04:51:01;;;;;;;2.78;1.05;;;21.80;95.90;;;;;;4992767;28;20251;-59
2022/07/04 04:53:27;;;;;;;2.13;1.05;;;23.30;91.30;;;;;;4993035;28;20038;-61
2022/07/04 04:55:53;;;;;;;4.40;0.90;;;24.70;86.60;;;;;;4992377;28;20050;-60
2022/07/04 04:58:20;;;;;;;1.88;1.20;;;25.60;81.50;;;;;;4993350;28;20106;-60
2022/07/04 05:00:48;;;;;;;1.60;0.80;;;25.50;80.40;;;;;;4993420;28;20033;-59
2022/07/04 05:03:13;;;;;;;1.98;0.70;;;26.90;76.00;;;;;;4992600;28;20034;-61
2022/07/04 05:05:39;;;;;;;3.38;1.00;;;27.80;72.70;;;;;;4991698;28;20496;-60
2022/07/04 05:08:05;;;;;;;2.67;1.20;;;28.30;70.80;;;;;;4993299;28;20026;-60
2022/07/04 05:10:30;;;;;;;4.32;0.95;;;28.80;68.40;;;;;;4993206;28;20029;-60
2022/07/04 05:12:56;;;;;;;2.60;1.00;;;29.10;67.00;;;;;;4993149;28;20027;-60
2022/07/04 05:15:22;;;;;;;2.85;0.90;;;28.70;66.60;;;;;;4991593;28;20033;-61
2022/07/04 05:17:47;;;;;;;1.85;0.95;;;28.30;67.90;;;;;;4992591;28;20054;-61
2022/07/04 05:20:13;;;;;;;4.32;0.90;;;27.80;67.70;;;;;;4993046;28;20027;-59
2022/07/04 05:22:38;;;;;;;3.83;1.33;;;27.50;67.50;;;;;;4993007;28;20037;-61
2022/07/04 05:25:05;;;;;;;3.97;1.20;;;27.80;67.40;;;;;;4992739;28;20106;-61
2022/07/04 05:27:30;;;;;;;2.70;0.80;;;28.30;67.40;;;;;;4992969;28;20584;-61
2022/07/04 05:29:58;;;;;;;3.63;1.15;;;29.40;66.40;;;;;;4991456;28;20068;-61
2022/07/04 05:32:24;;;;;;;1.27;0.95;;;30.40;63.40;;;;;;4992489;28;20026;-59
2022/07/04 05:34:50;;;;;;;2.88;1.00;;;30.90;62.20;;;;;;4992490;28;20292;-61
2022/07/04 05:37:16;;;;;;;3.03;1.30;;;30.20;61.90;;;;;;4992758;28;20396;-60
2022/07/04 05:39:41;;;;;;;2.97;1.33;;;28.90;63.40;;;;;;4993019;28;20059;-61
2022/07/04 05:42:07;;;;;;;2.35;1.23;;;28.80;63.60;;;;;;4992793;28;20472;-60
2022/07/04 05:44:33;;;;;;;6.03;1.45;;;30.00;62.80;;;;;;4991018;28;20093;-59
2022/07/04 05:46:58;;;;;;;2.42;1.10;;;30.90;61.40;;;;;;4992395;28;20037;-59
2022/07/04 05:49:24;;;;;;;3.92;1.13;;;31.50;59.20;;;;;;4992830;28;20109;-61
2022/07/04 05:51:50;;;;;;;3.55;1.05;;;30.50;59.60;;;;;;4992312;28;20560;-62
2022/07/04 05:54:15;;;;;;;3.05;1.23;;;30.20;61.00;;;;;;4993282;28;20058;-62
2022/07/04 05:56:42;;;;;;;5.10;1.20;;;29.80;60.70;;;;;;4992164;28;20113;-62
2022/07/04 05:59:08;;;;;;;2.15;1.00;;;30.50;61.00;;;;;;4990967;28;20022;-61
2022/07/04 06:01:34;;;;;;;3.45;1.30;;;30.90;60.40;;;;;;4992377;28;20030;-62
2022/07/04 06:04:00;;;;;;;1.45;1.00;;;31.50;59.00;;;;;;4992735;28;20037;-62
2022/07/04 06:06:26;;;;;;;3.17;1.20;;;30.60;59.70;;;;;;4990763;28;20076;-62
2022/07/04 06:08:51;;;;;;;3.05;1.40;;;30.90;60.20;;;;;;4992372;28;20034;-62
2022/07/04 06:11:18;;;;;;;3.25;0.95;;;31.10;58.80;;;;;;4992387;28;20030;-62
2022/07/04 06:13:43;;;;;;;6.25;1.17;;;31.90;58.20;;;;;;4992335;28;20066;-62
2022/07/04 06:16:09;;;;;;;3.38;1.63;;;31.20;57.60;;;;;;4996711;28;20053;-62
2022/07/04 06:18:35;;;;;;;8.07;1.40;;;31.00;59.80;;;;;;4998887;28;20065;-62
2022/07/04 06:21:00;;;;;;;3.17;1.40;;;30.80;59.60;;;;;;4997560;28;20030;-62
2022/07/04 06:23:26;;;;;;;5.63;1.35;;;29.90;59.00;;;;;;4998670;28;20026;-62
2022/07/04 06:25:51;;;;;;;7.03;1.45;;;29.70;59.70;;;;;;4998533;28;20030;-62
2022/07/04 06:28:17;;;;;;;5.32;1.67;;;29.50;60.50;;;;;;4998649;28;20019;-62
2022/07/04 06:30:43;;;;;;;6.32;1.60;;;29.90;60.40;;;;;;4998400;28;20377;-62
2022/07/04 06:33:08;;;;;;;3.10;2.08;;;29.70;60.20;;;;;;4998279;28;20042;-62
2022/07/04 06:35:51;;;;;;;6.10;1.70;;;29.90;60.50;;;;;;4997276;28;20042;-62
2022/07/04 06:38:21;;;;;;;3.60;1.55;;;30.00;60.60;;;;;;4998501;28;20456;-63
2022/07/04 06:40:50;;;;;;;3.50;1.80;;;31.40;59.10;;;;;;4998878;28;20385;-63
2022/07/04 06:43:16;;;;;;;4.45;2.00;;;32.20;58.40;;;;;;4998612;28;20030;-62
2022/07/04 06:45:42;;;;;;;5.50;2.17;;;32.90;57.70;;;;;;4998354;28;20129;-63
2022/07/04 06:48:07;;;;;;;6.97;1.90;;;32.40;55.90;;;;;;4997571;28;20041;-62
2022/07/04 06:50:34;;;;;;;9.40;2.20;;;30.50;58.10;;;;;;4998430;28;20018;-62
2022/07/04 06:53:01;;;;;;;5.57;2.00;;;30.40;59.10;;;;;;4998829;28;20030;-62
2022/07/04 06:55:41;;;;;;;7.00;3.03;;;30.50;58.70;;;;;;4997701;28;20030;-62
2022/07/04 06:58:08;;;;;;;5.22;3.42;;;31.00;60.10;;;;;;4998708;28;20022;-62
2022/07/04 07:00:34;;;;;;;5.55;3.63;;;31.20;56.90;;;;;;4998461;28;20102;-62
2022/07/04 07:03:02;;;;;;;4.90;2.40;;;31.90;55.60;;;;;;4996788;28;20037;-60
2022/07/04 07:05:29;;;;;;;5.22;2.30;;;31.50;56.70;;;;;;4997316;28;20109;-62
2022/07/04 07:07:55;;;;;;;6.10;2.00;;;31.90;56.00;;;;;;4998253;28;20085;-62
2022/07/04 07:10:21;;;;;;;3.80;2.00;;;31.50;55.10;;;;;;4998093;28;20034;-61
2022/07/04 07:12:47;;;;;;;4.97;2.10;;;31.10;56.00;;;;;;4998268;28;20126;-62
2022/07/04 07:15:13;;;;;;;5.47;1.83;;;31.00;56.50;;;;;;4994425;28;20532;-62
2022/07/04 07:17:40;;;;;;;4.60;1.98;;;30.90;56.90;;;;;;4998246;28;20102;-62
2022/07/04 07:20:07;;;;;;;3.85;1.52;;;31.90;55.80;;;;;;4998200;28;20023;-62
2022/07/04 07:22:32;;;;;;;4.93;2.20;;;32.50;55.10;;;;;;4998185;28;20049;-62
2022/07/04 07:24:58;;;;;;;4.30;1.95;;;31.60;55.50;;;;;;4997854;28;20479;-62
2022/07/04 07:27:24;;;;;;;5.93;2.13;;;32.00;57.80;;;;;;4995392;28;20022;-63
2022/07/04 07:29:49;;;;;;;7.00;2.30;;;32.70;54.50;;;;;;4994262;28;20084;-62
2022/07/04 07:32:15;;;;;;;5.22;2.17;;;32.30;52.60;;;;;;4994759;28;20429;-62
2022/07/04 07:34:40;;;;;;;4.22;1.83;;;32.00;54.10;;;;;;4994652;28;20031;-62
2022/07/04 07:37:06;;;;;;;6.95;2.20;;;31.50;54.40;;;;;;4994572;28;20027;-62
2022/07/04 07:39:32;;;;;;;2.58;1.70;;;31.50;53.70;;;;;;4995114;28;20046;-61
2022/07/04 07:41:58;;;;;;;6.38;1.63;;;31.90;54.50;;;;;;4994857;28;20029;-62
2022/07/04 07:44:24;;;;;;;3.88;1.90;;;32.30;52.60;;;;;;4993232;28;20421;-62
2022/07/04 07:46:49;;;;;;;3.75;1.35;;;32.10;52.50;;;;;;4994580;28;20492;-62
2022/07/04 07:49:15;;;;;;;2.67;1.15;;;31.70;52.10;;;;;;4994801;28;20030;-61
2022/07/04 07:51:40;;;;;;;4.30;1.27;;;32.10;51.30;;;;;;4994445;28;20395;-63
2022/07/04 07:54:06;;;;;;;1.58;0.80;;;32.80;50.10;;;;;;4990237;28;20037;-58
2022/07/04 07:56:32;;;;;;;5.78;1.30;;;31.70;50.50;;;;;;4993652;28;20022;-58
2022/07/04 07:58:57;;;;;;;6.05;1.10;;;32.20;51.30;;;;;;4994679;28;20045;-59
2022/07/04 08:01:23;;;;;;;7.30;0.82;;;33.20;50.00;;;;;;4994575;28;20436;-59
2022/07/04 08:06:33;;;;;;;1.27;0.85;;;32.40;51.30;;;;;;4994254;28;20037;-59
2022/07/04 08:08:59;;;;;;;4.53;1.40;;;32.80;50.90;;;;;;4993236;28;20022;-59
2022/07/04 08:11:25;;;;;;;3.97;1.20;;;33.10;49.80;;;;;;4994305;28;20037;-59
2022/07/04 08:13:51;;;;;;;3.33;1.35;;;33.20;49.90;;;;;;4994181;28;20073;-59
2022/07/04 08:16:17;;;;;;;3.80;1.05;;;33.00;49.50;;;;;;4993903;28;20476;-60
2022/07/04 08:18:43;;;;;;;4.63;1.25;;;32.50;50.30;;;;;;4994265;28;20073;-59
2022/07/04 08:21:09;;;;;;;4.20;1.00;;;31.50;50.20;;;;;;4994168;28;20029;-59
2022/07/04 08:23:35;;;;;;;2.15;0.88;;;31.60;53.80;;;;;;4993013;28;20030;-59
2022/07/04 08:26:01;;;;;;;5.70;0.98;;;31.50;52.00;;;;;;4993737;28;20081;-59
2022/07/04 08:28:28;;;;;;;4.93;1.23;;;31.70;50.20;;;;;;4993852;28;20030;-59
2022/07/04 08:30:57;;;;;;;3.42;1.10;;;32.40;49.60;;;;;;4993844;28;20034;-59
2022/07/04 08:33:23;;;;;;;4.05;0.98;;;32.80;50.00;;;;;;4994189;28;20034;-61
2022/07/04 08:35:49;;;;;;;6.57;1.70;;;33.60;49.30;;;;;;4993273;28;20033;-60
2022/07/04 08:38:18;;;;;;;2.90;0.80;;;32.70;50.10;;;;;;4992145;28;20031;-62
2022/07/04 08:40:44;;;;;;;4.78;1.20;;;31.60;50.60;;;;;;4993475;28;20022;-60
2022/07/04 08:43:14;;;;;;;3.25;1.25;;;31.40;50.20;;;;;;4993959;28;20030;-62
2022/07/04 08:45:41;;;;;;;5.85;1.00;;;32.10;50.40;;;;;;4993386;28;20523;-62
2022/07/04 08:48:08;;;;;;;1.77;0.90;;;31.60;51.60;;;;;;4993736;28;20034;-61
2022/07/04 08:50:43;;;;;;;3.80;1.27;;;31.40;51.30;;;;;;4993362;28;20039;-62
2022/07/04 08:53:13;;;;;;;3.53;1.40;;;31.40;50.90;;;;;;4993259;28;20037;-62
2022/07/04 08:58:31;;;;;;;5.88;1.30;;;31.50;52.30;;;;;;4993492;28;20149;-62
2022/07/04 09:01:14;;;;;;;2.58;1.10;;;31.30;51.50;;;;;;4993773;28;20113;-62
2022/07/04 09:03:45;;;;;;;2.10;0.95;;;30.80;51.20;;;;;;4991527;28;20026;-62
2022/07/04 09:06:12;;;;;;;2.00;0.90;;;31.10;52.80;;;;;;4992920;28;20056;-62
2022/07/04 09:08:39;;;;;;;3.55;1.00;;;31.20;51.50;;;;;;4993344;28;20065;-61
2022/07/04 09:11:06;;;;;;;3.08;1.05;;;31.80;49.90;;;;;;4993223;28;20027;-63
2022/07/04 09:13:32;;;;;;;5.28;1.40;;;33.00;50.40;;;;;;4993179;28;20030;-62
2022/07/04 09:15:58;;;;;;;2.78;1.20;;;32.50;50.10;;;;;;4992800;28;20030;-62
2022/07/04 09:18:25;;;;;;;2.05;1.13;;;31.90;52.00;;;;;;4991725;28;20058;-62
2022/07/04 09:20:52;;;;;;;5.20;1.30;;;31.80;50.40;;;;;;4993226;28;20022;-61
2022/07/04 09:23:20;;;;;;;4.75;1.13;;;31.60;49.60;;;;;;4993112;28;20037;-62
2022/07/04 09:25:46;;;;;;;3.60;1.15;;;31.50;50.30;;;;;;4992384;28;20030;-62
2022/07/04 09:28:25;;;;;;;1.65;0.90;;;31.80;50.30;;;;;;4992835;28;20499;-61
2022/07/04 09:30:51;;;;;;;2.10;0.95;;;32.40;49.70;;;;;;4992395;28;20504;-62
2022/07/04 09:33:18;;;;;;;4.28;1.10;;;32.40;48.50;;;;;;4991638;28;20061;-63
2022/07/04 09:35:44;;;;;;;3.92;1.23;;;32.60;50.40;;;;;;4992558;28;20077;-62
2022/07/04 09:38:12;;;;;;;3.67;1.10;;;31.40;49.30;;;;;;4992744;28;20023;-62
2022/07/04 09:43:25;;;;;;;2.60;1.25;;;31.90;51.70;;;;;;4992341;28;20510;-62
2022/07/04 09:46:00;;;;;;;2.70;1.70;;;31.80;50.90;;;;;;4991375;28;20037;-62
2022/07/04 09:48:27;;;;;;;5.85;1.10;;;31.90;50.30;;;;;;4992501;28;20035;-62
2022/07/04 09:50:52;;;;;;;2.28;1.30;;;31.00;49.50;;;;;;4992504;28;20438;-61
2022/07/04 09:53:18;;;;;;;4.50;1.25;;;30.50;50.90;;;;;;4992752;28;20060;-61
2022/07/04 09:55:47;;;;;;;6.38;1.38;;;29.50;51.30;;;;;;4990824;28;20104;-61
2022/07/04 09:58:15;;;;;;;3.13;1.17;;;29.40;52.40;;;;;;4987541;28;20065;-62
2022/07/04 10:00:45;;;;;;;3.17;1.00;;;29.60;52.00;;;;;;4992542;28;20034;-60
2022/07/04 10:03:26;;;;;;;3.53;1.15;;;30.90;51.90;;;;;;4992731;28;20022;-62
2022/07/04 10:06:15;;;;;;;3.88;0.82;;;31.40;51.50;;;;;;4991545;28;20428;-62
2022/07/04 10:08:43;;;;;;;2.30;1.10;;;31.20;51.10;;;;;;4991209;28;20026;-61
2022/07/04 10:11:09;;;;;;;6.95;1.58;;;30.10;50.00;;;;;;4992253;28;20027;-61
2022/07/04 10:13:35;;;;;;;4.13;1.20;;;30.00;53.30;;;;;;4992529;28;20041;-59
2022/07/04 10:16:01;;;;;;;4.00;1.02;;;29.90;52.10;;;;;;4991948;28;20455;-61
2022/07/04 10:18:26;;;;;;;3.67;1.48;;;29.60;52.40;;;;;;4991984;28;20507;-59
2022/07/04 10:20:54;;;;;;;1.95;0.73;;;28.30;52.70;;;;;;4992110;28;20053;-60
2022/07/04 10:23:21;;;;;;;3.80;1.30;;;28.50;53.90;;;;;;4991313;28;20453;-60
2022/07/04 10:25:51;;;;;;;2.47;1.00;;;27.80;54.00;;;;;;4991143;28;20033;-60
2022/07/04 10:28:17;;;;;;;2.83;1.02;;;27.90;57.40;;;;;;4992007;28;20080;-60
2022/07/04 10:30:47;;;;;;;3.13;1.00;;;28.30;52.80;;;;;;4992147;28;20030;-60
2022/07/04 10:33:15;;;;;;;2.95;1.00;;;28.80;53.30;;;;;;4992445;28;20033;-60
2022/07/04 10:35:56;;;;;;;2.75;1.20;;;28.70;54.50;;;;;;4991537;28;20022;-58
2022/07/04 10:38:24;;;;;;;2.40;1.10;;;28.50;52.30;;;;;;4990901;28;20058;-58
2022/07/04 10:40:57;;;;;;;2.60;0.90;;;28.50;53.40;;;;;;4991467;28;20037;-60
2022/07/04 10:43:33;;;;;;;4.47;0.90;;;28.30;52.20;;;;;;4992052;28;20026;-58
2022/07/04 10:46:02;;;;;;;2.22;0.95;;;28.40;53.60;;;;;;4991417;28;20030;-57
2022/07/04 10:48:28;;;;;;;4.45;0.95;;;28.50;50.50;;;;;;4991587;28;20035;-61
2022/07/04 10:51:01;;;;;;;1.88;1.05;;;28.00;51.70;;;;;;4990803;28;20519;-58
2022/07/04 10:53:27;;;;;;;3.20;1.13;;;27.60;52.70;;;;;;4990556;28;20034;-61
2022/07/04 10:55:53;;;;;;;2.10;1.17;;;27.10;53.10;;;;;;4991866;28;20019;-59
2022/07/04 10:58:42;;;;;;;1.77;0.90;;;26.90;54.80;;;;;;4991582;28;20568;-59
2022/07/04 11:01:18;;;;;;;3.38;0.98;;;26.80;54.70;;;;;;4989892;28;20153;-59
2022/07/04 11:03:49;;;;;;;1.98;0.77;;;26.90;56.20;;;;;;4992508;28;20400;-59
2022/07/04 11:06:33;;;;;;;2.53;0.98;;;27.20;54.50;;;;;;4995026;28;20117;-60
2022/07/04 11:09:14;;;;;;;;;;;27.00;55.20;;;;;;4995971;28;20077;-60
2022/07/04 11:11:56;;;;;;;3.38;0.93;;;27.20;54.90;;;;;;4995160;28;19992;-59
2022/07/04 11:14:46;;;;;;;6.95;1.60;;;27.40;55.90;;;;;;4995294;28;20030;-59
2022/07/04 11:17:14;;;;;;;4.15;0.93;;;27.40;52.60;;;;;;4993830;28;20464;-58
2022/07/04 11:19:41;;;;;;;5.57;0.90;;;27.40;52.00;;;;;;4995501;28;20018;-58
2022/07/04 11:22:09;;;;;;;2.28;0.80;;;27.20;51.70;;;;;;4993426;28;20030;-58
2022/07/04 11:24:35;;;;;;;2.38;1.23;;;26.70;52.30;;;;;;4993510;28;20054;-57
2022/07/04 11:27:01;;;;;;;2.97;0.80;;;26.30;52.90;;;;;;4993702;28;20030;-58
2022/07/04 11:29:29;;;;;;;2.60;0.95;;;26.10;55.10;;;;;;4994818;28;20054;-57
2022/07/04 11:31:55;;;;;;;3.00;0.95;;;26.30;55.90;;;;;;4993664;28;20034;-60
2022/07/04 11:34:21;;;;;;;1.92;0.80;;;26.40;55.60;;;;;;4994965;28;20058;-58
2022/07/04 11:36:49;;;;;;;1.63;0.80;;;26.50;54.60;;;;;;4993634;28;20025;-58
2022/07/04 11:39:20;;;;;;;2.47;0.98;;;26.70;53.00;;;;;;4995013;28;20081;-60
2022/07/04 11:47:25;;;;;;;2.33;0.90;;;27.10;54.50;;;;;;4989667;28;20053;-61
2022/07/04 11:49:56;;;;;;;2.70;0.80;;;27.10;52.70;;;;;;4994820;28;20034;-61
2022/07/04 11:52:24;;;;;;;6.05;1.00;;;27.00;54.20;;;;;;4994084;28;20053;-61
2022/07/04 11:54:52;;;;;;;4.22;0.82;;;26.50;54.80;;;;;;5007147;23;20054;-60
2022/07/04 11:57:23;;;;;;;3.42;0.90;;;26.50;55.20;;;;;;4994698;28;20023;-60
2022/07/04 11:59:59;;;;;;;4.50;0.93;;;26.30;56.10;;;;;;4994612;28;20499;-59
2022/07/04 12:02:26;;;;;;;2.03;0.90;;;26.40;54.70;;;;;;4993180;28;20456;-60
2022/07/04 12:04:52;;;;;;;4.07;1.30;;;26.30;54.00;;;;;;4993233;28;20035;-60
2022/07/04 12:07:19;;;;;;;2.35;1.23;;;25.90;54.00;;;;;;4994388;28;20084;-60
2022/07/04 12:09:46;;;;;;;3.00;0.95;;;25.50;56.20;;;;;;4994698;28;20026;-60
2022/07/04 12:12:14;;;;;;;2.60;0.80;;;25.80;56.90;;;;;;4994586;28;20023;-60
2022/07/04 12:14:55;;;;;;;4.25;1.05;;;26.10;55.80;;;;;;4997678;28;20096;-60
2022/07/04 12:17:21;;;;;;;5.65;1.02;;;26.10;56.90;;;;;;4994055;28;20034;-61
2022/07/04 12:20:00;;;;;;;2.33;1.15;;;26.30;56.30;;;;;;4994436;28;20022;-59
2022/07/04 12:22:36;;;;;;;1.83;0.75;;;26.50;55.20;;;;;;4994604;28;20365;-60
2022/07/04 12:25:05;;;;;;;7.75;1.10;;;26.80;55.50;;;;;;4994025;28;20377;-60
2022/07/04 12:27:31;;;;;;;4.60;1.27;;;26.90;55.90;;;;;;4993455;28;20042;-59
2022/07/04 12:29:58;;;;;;;3.42;1.10;;;26.90;55.80;;;;;;4997499;28;20026;-58
2022/07/04 12:32:24;;;;;;;1.73;0.77;;;26.80;54.70;;;;;;4993882;28;20034;-60
2022/07/04 12:34:49;;;;;;;3.28;1.00;;;26.80;54.70;;;;;;4993643;28;20035;-60
2022/07/04 12:37:16;;;;;;;2.47;1.10;;;26.80;52.90;;;;;;4997543;28;20029;-59
2022/07/04 12:39:43;;;;;;;2.05;1.00;;;26.50;53.80;;;;;;5000492;28;20595;-60
2022/07/04 12:42:17;;;;;;;3.17;1.08;;;26.30;55.40;;;;;;4993938;28;20408;-60
2022/07/04 12:44:45;;;;;;;4.80;0.80;;;26.50;55.00;;;;;;4993537;28;20081;-60
2022/07/04 12:47:12;;;;;;;5.80;1.20;;;26.60;57.00;;;;;;4993739;28;20034;-60
2022/07/04 12:49:43;;;;;;;1.85;1.20;;;26.40;55.50;;;;;;4993713;28;20033;-60
2022/07/04 12:52:14;;;;;;;1.67;0.85;;;26.70;54.70;;;;;;4995757;28;20034;-60
2022/07/04 12:54:40;;;;;;;2.85;1.08;;;26.80;53.30;;;;;;4973820;28;20536;-60
2022/07/04 12:57:18;;;;;;;5.30;1.00;;;27.10;56.20;;;;;;4974169;28;20029;-60
2022/07/04 12:59:44;;;;;;;2.05;0.90;;;26.90;54.90;;;;;;4974490;28;20019;-60
2022/07/04 13:02:11;;;;;;;2.45;0.95;;;27.20;53.20;;;;;;4991978;28;20129;-58
2022/07/04 13:04:38;;;;;;;2.28;0.95;;;27.20;54.90;;;;;;4994709;28;20053;-60
2022/07/04 13:07:17;;;;;;;4.63;0.93;;;27.30;53.70;;;;;;4997588;28;20034;-60
2022/07/04 13:09:44;;;;;;;1.15;0.60;;;27.60;53.20;;;;;;4993279;28;20033;-59